Relevés horaires Florennes (Belgique)


Relevés horaires à Florennes - Lundi 03 Août 2020
Heure UTC1 Température [°C] Vent [km/h] Hum. [%] Pres.4 [hPa] Visi. [Km] Nébu. [octa] Préc.5 [mm] Cond.
2m. Res. Ros. Dir.2 Vit. Moy. Raf.3
23:00 14.2 14.2 11.8 NNO 3.7 -- 7.4 85 1016.3(1.4/3h) 6 -- -- Il y a de la pluie modérée et continue à la station au moment de l'observation
22:00 14.1 14.1 11.2 N 3.7 -- 7.4 83 1015.8(1.6/3h) 20 -- -- --
21:00 14.5 14.5 10.7 NNO 3.7 -- 13.0 78 1015.3(1.6/3h) 20 -- -- --
20:00 14.6 14.6 10.5 NNO 5.6 -- 9.3 76 1014.7(1.7/3h) 20 -- -- --
19:00 15.3 15.3 9.8 NNO 5.6 -- 13.0 70 1014.1(1.3/3h) 20 -- -- --
18:00 16.8 16.8 8.9 NNO 7.4 -- 20.4 60 1013.3(1.3/3h) 20 -- -- --
17:00 18.0 17.9 10.8 N 13.0 -- 20.4 63 1012.6(0.4/3h) 20 -- -- --
16:00 18.0 17.9 10.9 NNO 13.0 -- 20.4 63 1012.2(-0.2/3h) 20 -- -- --
15:00 21.2 21.2 4.2 SO 3.7 -- 16.7 33 1011.5(-1.1/3h) 20 4/8 -- --
14:00 21.0 21.0 6.2 NO 5.6 -- 13.0 38 1011.8(-1.1/3h) 20 4/8 -- --
13:00 21.1 21.1 6.4 NNO 3.7 -- 11.1 38 1012.2(-1.1/3h) 20 5/8 -- --
12:00 19.3 19.3 6.7 SO 3.7 -- 11.1 44 1012.8(-0.9/3h) 20 5/8 -- --
11:00 18.3 18.3 8.9 O 3.7 -- 11.1 54 1013.2(-0.8/3h) 20 6/8 -- --
10:00 18.4 18.4 10.7 O 3.7 -- 9.3 61 1013.7(-0.6/3h) 20 6/8 -- --
09:00 17.1 17.1 10.3 NNO 1.9 -- 9.3 64 1014(-0.3/3h) 20 6/8 -- --
08:00 15.6 15.6 11.2 O 3.7 -- 7.4 75 1014.6(0.0/3h) 20 6/8 -- --
07:00 14.8 14.8 11.4 O 3.7 -- 5.6 80 1014.7(0.0/3h) 20 6/8 -- --
06:00 12.6 12.6 10.6 O 3.7 -- 7.4 88 1014.8(-0.3/3h) 20 6/8 -- --
05:00 12.0 12.0 9.8 NNO 1.9 -- 5.6 86 1015.1(-0.6/3h) 20 -- -- --
04:00 11.8 11.8 9.6 NNO 1.9 -- 5.6 86 1015.2(-0.8/3h) 20 -- -- --
03:00 12.0 12.0 9.8 NNO 1.9 -- 7.4 86 1015.3(-1.0/3h) 20 -- -- --
02:00 12.6 12.6 9.9 O 3.7 -- 5.6 84 1015.7(-0.7/3h) 20 -- -- --
01:00 12.3 12.3 9.5 ONO 3.7 -- 7.4 83 1016.1(-0.5/3h) 20 -- -- --
00:00 13.6 13.6 10.0 O 5.6 -- 9.3 79 1016.2(-0.2/3h) 20 -- -- --

1 Coordinated Universal Time. Actuellement il est 20:00 locale et 18:00 UTC.

2 Le vent souffle depuis la direction indiquée vers la direction oposée.

3 Les rafales max. sont disponible 40 min après l'heure du relevé.

4 Pour les stations d'altitude (plus de 600m) le géopotentiel du niveau le plus proche de la pression obligatoire est indiqué.

5 Les stations disposant d'un diffuseur peuvent indiquer "trace". Cela signifie que des précipitations ont touchés le sol mais que la quantité est inférieure à 0.1 mm.

Récapitulatif de la journée
Température [°C] Vent [km/h] Ensoleillement4 [h] Precipitations totale5 [mm] Pression [Hpa]
Min1 Max.2 Moy.3 Max. Min Max.
11.6 23.0 0 20.4 0 h 0 min 0 1011.5 1016.3

1 Température minimale relevée entre 18:00 UTC la veille et 18:00 UTC le jour donné.

2 Température maximale relevée entre 06:00 UTC le jour donné et 06:00 UTC le lendemain.

3 Vent moyen de la journée basé sur les relevés horaires.

4 Ensoleillement en heures relevé entre 06:00 UTC la veille et 06:00 UTC le jour donné.

5 Précipitations totales tombées entre 06:00 UTC la jour donné et 06:00 UTC le lendemain.

Graphiques horaires